sensor_id;sensor_type;location;lat;lon;timestamp;P1;durP1;ratioP1;P2;durP2;ratioP2
3297;SDS011;1661;53.572;10.174;2023-09-30T00:00:57;12.70;;;5.60;;
3297;SDS011;1661;53.572;10.174;2023-09-30T00:03:24;11.73;;;5.07;;
3297;SDS011;1661;53.572;10.174;2023-09-30T00:05:51;10.90;;;4.50;;
3297;SDS011;1661;53.572;10.174;2023-09-30T00:08:18;27.23;;;6.30;;
3297;SDS011;1661;53.572;10.174;2023-09-30T00:10:45;17.10;;;5.10;;
3297;SDS011;1661;53.572;10.174;2023-09-30T00:13:11;23.20;;;5.50;;
3297;SDS011;1661;53.572;10.174;2023-09-30T00:15:40;11.03;;;4.93;;
3297;SDS011;1661;53.572;10.174;2023-09-30T00:18:07;18.10;;;5.17;;
3297;SDS011;1661;53.572;10.174;2023-09-30T00:20:34;14.73;;;6.30;;
3297;SDS011;1661;53.572;10.174;2023-09-30T00:23:01;18.47;;;5.70;;
3297;SDS011;1661;53.572;10.174;2023-09-30T00:25:29;17.10;;;5.50;;
3297;SDS011;1661;53.572;10.174;2023-09-30T00:27:56;24.57;;;6.43;;
3297;SDS011;1661;53.572;10.174;2023-09-30T00:30:22;19.70;;;6.00;;
3297;SDS011;1661;53.572;10.174;2023-09-30T00:32:51;22.03;;;7.17;;
3297;SDS011;1661;53.572;10.174;2023-09-30T00:35:17;9.23;;;5.50;;
3297;SDS011;1661;53.572;10.174;2023-09-30T00:37:44;24.50;;;6.13;;
3297;SDS011;1661;53.572;10.174;2023-09-30T00:40:11;20.67;;;6.40;;
3297;SDS011;1661;53.572;10.174;2023-09-30T00:42:38;14.20;;;6.00;;
3297;SDS011;1661;53.572;10.174;2023-09-30T00:45:06;22.80;;;5.63;;
3297;SDS011;1661;53.572;10.174;2023-09-30T00:47:34;15.03;;;6.13;;
3297;SDS011;1661;53.572;10.174;2023-09-30T00:50:03;17.30;;;5.60;;
3297;SDS011;1661;53.572;10.174;2023-09-30T00:52:33;13.23;;;6.50;;
3297;SDS011;1661;53.572;10.174;2023-09-30T00:55:03;14.63;;;5.83;;
3297;SDS011;1661;53.572;10.174;2023-09-30T00:57:31;20.37;;;6.13;;
3297;SDS011;1661;53.572;10.174;2023-09-30T00:59:58;16.03;;;5.03;;
3297;SDS011;1661;53.572;10.174;2023-09-30T01:02:25;32.97;;;7.07;;
3297;SDS011;1661;53.572;10.174;2023-09-30T01:04:51;17.23;;;5.03;;
3297;SDS011;1661;53.572;10.174;2023-09-30T01:07:21;8.50;;;4.67;;
3297;SDS011;1661;53.572;10.174;2023-09-30T01:09:48;25.13;;;6.87;;
3297;SDS011;1661;53.572;10.174;2023-09-30T01:12:15;18.93;;;5.87;;
3297;SDS011;1661;53.572;10.174;2023-09-30T01:14:42;13.07;;;5.40;;
3297;SDS011;1661;53.572;10.174;2023-09-30T01:17:09;11.07;;;4.60;;
3297;SDS011;1661;53.572;10.174;2023-09-30T01:19:38;18.57;;;5.80;;
3297;SDS011;1661;53.572;10.174;2023-09-30T01:22:07;15.53;;;4.67;;
3297;SDS011;1661;53.572;10.174;2023-09-30T01:24:38;18.70;;;5.63;;
3297;SDS011;1661;53.572;10.174;2023-09-30T01:27:05;23.13;;;5.70;;
3297;SDS011;1661;53.572;10.174;2023-09-30T01:29:32;27.13;;;6.90;;
3297;SDS011;1661;53.572;10.174;2023-09-30T01:31:59;14.63;;;4.40;;
3297;SDS011;1661;53.572;10.174;2023-09-30T01:34:26;14.10;;;5.47;;
3297;SDS011;1661;53.572;10.174;2023-09-30T01:36:53;15.70;;;5.67;;
3297;SDS011;1661;53.572;10.174;2023-09-30T01:39:21;19.80;;;5.00;;
3297;SDS011;1661;53.572;10.174;2023-09-30T01:41:48;19.30;;;5.53;;
3297;SDS011;1661;53.572;10.174;2023-09-30T01:44:15;19.03;;;5.70;;
3297;SDS011;1661;53.572;10.174;2023-09-30T01:46:41;17.57;;;5.67;;
3297;SDS011;1661;53.572;10.174;2023-09-30T01:49:08;9.43;;;3.93;;
3297;SDS011;1661;53.572;10.174;2023-09-30T01:51:36;11.30;;;6.00;;
3297;SDS011;1661;53.572;10.174;2023-09-30T01:54:03;17.57;;;5.43;;
3297;SDS011;1661;53.572;10.174;2023-09-30T01:56:31;18.97;;;5.87;;
3297;SDS011;1661;53.572;10.174;2023-09-30T01:58:59;14.97;;;5.90;;
3297;SDS011;1661;53.572;10.174;2023-09-30T02:01:25;12.00;;;4.87;;
3297;SDS011;1661;53.572;10.174;2023-09-30T02:03:52;12.43;;;5.00;;
3297;SDS011;1661;53.572;10.174;2023-09-30T02:06:19;12.87;;;5.03;;
3297;SDS011;1661;53.572;10.174;2023-09-30T02:08:46;12.97;;;4.40;;
3297;SDS011;1661;53.572;10.174;2023-09-30T02:11:13;16.77;;;5.70;;
3297;SDS011;1661;53.572;10.174;2023-09-30T02:13:41;9.20;;;3.60;;
3297;SDS011;1661;53.572;10.174;2023-09-30T02:16:12;16.50;;;5.87;;
3297;SDS011;1661;53.572;10.174;2023-09-30T02:18:39;21.23;;;5.40;;
3297;SDS011;1661;53.572;10.174;2023-09-30T02:21:07;15.93;;;5.90;;
3297;SDS011;1661;53.572;10.174;2023-09-30T02:23:35;14.30;;;5.70;;
3297;SDS011;1661;53.572;10.174;2023-09-30T02:26:02;9.77;;;4.87;;
3297;SDS011;1661;53.572;10.174;2023-09-30T02:28:29;15.13;;;4.97;;
3297;SDS011;1661;53.572;10.174;2023-09-30T02:30:58;20.17;;;6.40;;
3297;SDS011;1661;53.572;10.174;2023-09-30T02:33:25;11.93;;;4.70;;
3297;SDS011;1661;53.572;10.174;2023-09-30T02:35:52;9.83;;;4.40;;
3297;SDS011;1661;53.572;10.174;2023-09-30T02:38:19;12.23;;;5.17;;
3297;SDS011;1661;53.572;10.174;2023-09-30T02:40:48;24.13;;;6.63;;
3297;SDS011;1661;53.572;10.174;2023-09-30T02:43:15;9.63;;;5.40;;
3297;SDS011;1661;53.572;10.174;2023-09-30T02:45:41;19.87;;;5.03;;
3297;SDS011;1661;53.572;10.174;2023-09-30T02:48:10;12.00;;;6.00;;
3297;SDS011;1661;53.572;10.174;2023-09-30T02:50:37;25.90;;;6.70;;
3297;SDS011;1661;53.572;10.174;2023-09-30T02:53:05;17.10;;;5.20;;
3297;SDS011;1661;53.572;10.174;2023-09-30T02:55:32;10.83;;;4.77;;
3297;SDS011;1661;53.572;10.174;2023-09-30T02:57:58;12.80;;;4.80;;
3297;SDS011;1661;53.572;10.174;2023-09-30T03:00:26;13.07;;;5.13;;
3297;SDS011;1661;53.572;10.174;2023-09-30T03:02:52;18.80;;;5.00;;
3297;SDS011;1661;53.572;10.174;2023-09-30T03:05:21;16.33;;;5.90;;
3297;SDS011;1661;53.572;10.174;2023-09-30T03:07:49;19.60;;;5.10;;
3297;SDS011;1661;53.572;10.174;2023-09-30T03:10:16;20.63;;;5.57;;
3297;SDS011;1661;53.572;10.174;2023-09-30T03:12:45;11.47;;;4.60;;
3297;SDS011;1661;53.572;10.174;2023-09-30T03:15:12;26.17;;;5.77;;
3297;SDS011;1661;53.572;10.174;2023-09-30T03:17:39;19.17;;;6.50;;
3297;SDS011;1661;53.572;10.174;2023-09-30T03:20:07;14.93;;;3.93;;
3297;SDS011;1661;53.572;10.174;2023-09-30T03:22:38;20.63;;;7.13;;
3297;SDS011;1661;53.572;10.174;2023-09-30T03:25:05;17.00;;;6.33;;
3297;SDS011;1661;53.572;10.174;2023-09-30T03:27:34;19.83;;;6.50;;
3297;SDS011;1661;53.572;10.174;2023-09-30T03:30:01;18.80;;;7.27;;
3297;SDS011;1661;53.572;10.174;2023-09-30T03:32:29;14.73;;;6.43;;
3297;SDS011;1661;53.572;10.174;2023-09-30T03:34:58;15.77;;;5.30;;
3297;SDS011;1661;53.572;10.174;2023-09-30T03:37:26;13.27;;;4.93;;
3297;SDS011;1661;53.572;10.174;2023-09-30T03:39:54;18.10;;;5.90;;
3297;SDS011;1661;53.572;10.174;2023-09-30T03:42:21;16.93;;;5.80;;
3297;SDS011;1661;53.572;10.174;2023-09-30T03:44:48;11.30;;;4.50;;
3297;SDS011;1661;53.572;10.174;2023-09-30T03:47:16;13.77;;;5.93;;
3297;SDS011;1661;53.572;10.174;2023-09-30T03:49:43;15.87;;;5.47;;
3297;SDS011;1661;53.572;10.174;2023-09-30T03:52:10;28.57;;;6.10;;
3297;SDS011;1661;53.572;10.174;2023-09-30T03:54:38;17.80;;;6.00;;
3297;SDS011;1661;53.572;10.174;2023-09-30T03:57:08;22.07;;;6.70;;
3297;SDS011;1661;53.572;10.174;2023-09-30T03:59:37;15.10;;;5.10;;
3297;SDS011;1661;53.572;10.174;2023-09-30T04:02:04;14.37;;;5.17;;
3297;SDS011;1661;53.572;10.174;2023-09-30T04:04:31;20.07;;;6.13;;
3297;SDS011;1661;53.572;10.174;2023-09-30T04:06:59;11.20;;;6.13;;
3297;SDS011;1661;53.572;10.174;2023-09-30T04:09:26;13.00;;;5.20;;
3297;SDS011;1661;53.572;10.174;2023-09-30T04:11:52;22.47;;;6.47;;
3297;SDS011;1661;53.572;10.174;2023-09-30T04:14:20;17.90;;;6.47;;
3297;SDS011;1661;53.572;10.174;2023-09-30T04:16:47;21.83;;;7.30;;
3297;SDS011;1661;53.572;10.174;2023-09-30T04:19:14;21.53;;;8.43;;
3297;SDS011;1661;53.572;10.174;2023-09-30T04:21:41;24.00;;;5.90;;
3297;SDS011;1661;53.572;10.174;2023-09-30T04:24:08;21.27;;;5.77;;
3297;SDS011;1661;53.572;10.174;2023-09-30T04:26:35;16.10;;;5.23;;
3297;SDS011;1661;53.572;10.174;2023-09-30T04:29:06;18.97;;;5.90;;
3297;SDS011;1661;53.572;10.174;2023-09-30T04:31:36;23.67;;;6.50;;
3297;SDS011;1661;53.572;10.174;2023-09-30T04:34:06;17.47;;;6.37;;
3297;SDS011;1661;53.572;10.174;2023-09-30T04:36:33;10.50;;;5.70;;
3297;SDS011;1661;53.572;10.174;2023-09-30T04:39:01;23.67;;;6.97;;
3297;SDS011;1661;53.572;10.174;2023-09-30T04:41:28;25.43;;;7.50;;
3297;SDS011;1661;53.572;10.174;2023-09-30T04:43:55;19.73;;;5.93;;
3297;SDS011;1661;53.572;10.174;2023-09-30T04:46:21;14.17;;;6.10;;
3297;SDS011;1661;53.572;10.174;2023-09-30T04:48:50;11.00;;;4.40;;
3297;SDS011;1661;53.572;10.174;2023-09-30T04:51:17;18.07;;;6.70;;
3297;SDS011;1661;53.572;10.174;2023-09-30T04:53:44;13.03;;;6.80;;
3297;SDS011;1661;53.572;10.174;2023-09-30T04:56:12;25.70;;;6.47;;
3297;SDS011;1661;53.572;10.174;2023-09-30T04:58:39;18.03;;;6.47;;
3297;SDS011;1661;53.572;10.174;2023-09-30T05:01:05;14.17;;;6.00;;
3297;SDS011;1661;53.572;10.174;2023-09-30T05:03:34;17.70;;;6.43;;
3297;SDS011;1661;53.572;10.174;2023-09-30T05:06:02;15.93;;;6.03;;
3297;SDS011;1661;53.572;10.174;2023-09-30T05:08:29;13.30;;;6.37;;
3297;SDS011;1661;53.572;10.174;2023-09-30T05:10:56;16.03;;;5.10;;
3297;SDS011;1661;53.572;10.174;2023-09-30T05:13:23;15.00;;;6.37;;
3297;SDS011;1661;53.572;10.174;2023-09-30T05:15:50;21.53;;;6.63;;
3297;SDS011;1661;53.572;10.174;2023-09-30T05:18:17;16.73;;;6.87;;
3297;SDS011;1661;53.572;10.174;2023-09-30T05:20:44;16.53;;;5.90;;
3297;SDS011;1661;53.572;10.174;2023-09-30T05:23:12;16.73;;;5.63;;
3297;SDS011;1661;53.572;10.174;2023-09-30T05:25:39;27.30;;;6.93;;
3297;SDS011;1661;53.572;10.174;2023-09-30T05:28:05;25.60;;;7.07;;
3297;SDS011;1661;53.572;10.174;2023-09-30T05:30:32;11.00;;;6.13;;
3297;SDS011;1661;53.572;10.174;2023-09-30T05:32:59;11.73;;;5.70;;
3297;SDS011;1661;53.572;10.174;2023-09-30T05:35:26;16.40;;;6.23;;
3297;SDS011;1661;53.572;10.174;2023-09-30T05:37:53;22.23;;;8.23;;
3297;SDS011;1661;53.572;10.174;2023-09-30T05:40:22;14.33;;;6.27;;
3297;SDS011;1661;53.572;10.174;2023-09-30T05:42:51;22.83;;;6.70;;
3297;SDS011;1661;53.572;10.174;2023-09-30T05:45:18;27.47;;;7.83;;
3297;SDS011;1661;53.572;10.174;2023-09-30T05:47:45;12.83;;;5.90;;
3297;SDS011;1661;53.572;10.174;2023-09-30T05:50:12;21.50;;;7.50;;
3297;SDS011;1661;53.572;10.174;2023-09-30T05:52:41;13.23;;;4.83;;
3297;SDS011;1661;53.572;10.174;2023-09-30T05:55:09;16.57;;;5.80;;
3297;SDS011;1661;53.572;10.174;2023-09-30T05:57:38;25.93;;;7.33;;
3297;SDS011;1661;53.572;10.174;2023-09-30T06:00:05;17.97;;;6.57;;
3297;SDS011;1661;53.572;10.174;2023-09-30T06:02:53;22.80;;;6.47;;
3297;SDS011;1661;53.572;10.174;2023-09-30T06:05:20;15.80;;;5.50;;
3297;SDS011;1661;53.572;10.174;2023-09-30T06:07:48;22.63;;;6.13;;
3297;SDS011;1661;53.572;10.174;2023-09-30T06:10:15;19.27;;;7.10;;
3297;SDS011;1661;53.572;10.174;2023-09-30T06:12:45;18.37;;;7.43;;
3297;SDS011;1661;53.572;10.174;2023-09-30T06:15:12;19.67;;;7.50;;
3297;SDS011;1661;53.572;10.174;2023-09-30T06:17:40;19.90;;;7.03;;
3297;SDS011;1661;53.572;10.174;2023-09-30T06:20:08;16.80;;;6.70;;
3297;SDS011;1661;53.572;10.174;2023-09-30T06:22:41;18.53;;;7.47;;
3297;SDS011;1661;53.572;10.174;2023-09-30T06:25:08;15.63;;;5.57;;
3297;SDS011;1661;53.572;10.174;2023-09-30T06:27:36;19.70;;;5.60;;
3297;SDS011;1661;53.572;10.174;2023-09-30T06:30:05;18.33;;;6.43;;
3297;SDS011;1661;53.572;10.174;2023-09-30T06:32:34;14.20;;;6.87;;
3297;SDS011;1661;53.572;10.174;2023-09-30T06:35:01;25.83;;;7.27;;
3297;SDS011;1661;53.572;10.174;2023-09-30T06:37:29;21.47;;;7.30;;
3297;SDS011;1661;53.572;10.174;2023-09-30T06:39:55;8.73;;;5.20;;
3297;SDS011;1661;53.572;10.174;2023-09-30T06:42:22;12.97;;;6.03;;
3297;SDS011;1661;53.572;10.174;2023-09-30T06:44:50;18.13;;;7.00;;
3297;SDS011;1661;53.572;10.174;2023-09-30T06:47:19;18.70;;;6.10;;
3297;SDS011;1661;53.572;10.174;2023-09-30T06:49:46;22.63;;;6.90;;
3297;SDS011;1661;53.572;10.174;2023-09-30T06:52:12;26.47;;;6.40;;
3297;SDS011;1661;53.572;10.174;2023-09-30T06:54:39;23.70;;;6.90;;
3297;SDS011;1661;53.572;10.174;2023-09-30T06:57:06;22.30;;;7.00;;
3297;SDS011;1661;53.572;10.174;2023-09-30T06:59:34;21.20;;;7.00;;
3297;SDS011;1661;53.572;10.174;2023-09-30T07:02:02;15.43;;;6.40;;
3297;SDS011;1661;53.572;10.174;2023-09-30T07:04:30;17.23;;;6.13;;
3297;SDS011;1661;53.572;10.174;2023-09-30T07:06:57;18.93;;;7.00;;
3297;SDS011;1661;53.572;10.174;2023-09-30T07:09:24;15.33;;;6.57;;
3297;SDS011;1661;53.572;10.174;2023-09-30T07:11:51;15.90;;;6.80;;
3297;SDS011;1661;53.572;10.174;2023-09-30T07:14:18;16.13;;;6.27;;
3297;SDS011;1661;53.572;10.174;2023-09-30T07:16:45;21.40;;;6.90;;
3297;SDS011;1661;53.572;10.174;2023-09-30T07:19:12;17.33;;;6.20;;
3297;SDS011;1661;53.572;10.174;2023-09-30T07:21:40;19.43;;;7.13;;
3297;SDS011;1661;53.572;10.174;2023-09-30T07:24:07;14.60;;;5.70;;
3297;SDS011;1661;53.572;10.174;2023-09-30T07:26:34;15.90;;;5.73;;
3297;SDS011;1661;53.572;10.174;2023-09-30T07:29:02;22.33;;;5.27;;
3297;SDS011;1661;53.572;10.174;2023-09-30T07:31:33;16.30;;;5.87;;
3297;SDS011;1661;53.572;10.174;2023-09-30T07:34:01;28.20;;;6.80;;
3297;SDS011;1661;53.572;10.174;2023-09-30T07:36:28;14.57;;;5.97;;
3297;SDS011;1661;53.572;10.174;2023-09-30T07:38:56;14.60;;;4.73;;
3297;SDS011;1661;53.572;10.174;2023-09-30T07:41:22;14.67;;;4.80;;
3297;SDS011;1661;53.572;10.174;2023-09-30T07:43:49;14.53;;;5.17;;
3297;SDS011;1661;53.572;10.174;2023-09-30T07:46:16;17.97;;;6.20;;
3297;SDS011;1661;53.572;10.174;2023-09-30T07:48:43;19.53;;;6.37;;
3297;SDS011;1661;53.572;10.174;2023-09-30T07:51:10;12.60;;;5.00;;
3297;SDS011;1661;53.572;10.174;2023-09-30T07:53:38;15.83;;;5.77;;
3297;SDS011;1661;53.572;10.174;2023-09-30T07:56:07;14.43;;;6.00;;
3297;SDS011;1661;53.572;10.174;2023-09-30T07:58:33;15.80;;;5.23;;
3297;SDS011;1661;53.572;10.174;2023-09-30T08:01:00;17.03;;;5.40;;
3297;SDS011;1661;53.572;10.174;2023-09-30T08:03:29;12.80;;;5.00;;
3297;SDS011;1661;53.572;10.174;2023-09-30T08:05:56;12.33;;;5.03;;
3297;SDS011;1661;53.572;10.174;2023-09-30T08:08:23;14.23;;;5.03;;
3297;SDS011;1661;53.572;10.174;2023-09-30T08:10:50;16.40;;;5.93;;
3297;SDS011;1661;53.572;10.174;2023-09-30T08:13:21;16.47;;;4.90;;
3297;SDS011;1661;53.572;10.174;2023-09-30T08:15:49;19.67;;;4.77;;
3297;SDS011;1661;53.572;10.174;2023-09-30T08:18:16;14.67;;;5.30;;
3297;SDS011;1661;53.572;10.174;2023-09-30T08:20:43;21.60;;;5.47;;
3297;SDS011;1661;53.572;10.174;2023-09-30T08:23:10;13.83;;;5.40;;
3297;SDS011;1661;53.572;10.174;2023-09-30T08:25:37;16.20;;;5.60;;
3297;SDS011;1661;53.572;10.174;2023-09-30T08:28:04;25.33;;;6.27;;
3297;SDS011;1661;53.572;10.174;2023-09-30T08:30:33;18.83;;;4.60;;
3297;SDS011;1661;53.572;10.174;2023-09-30T08:33:00;20.90;;;4.80;;
3297;SDS011;1661;53.572;10.174;2023-09-30T08:35:28;23.50;;;4.80;;
3297;SDS011;1661;53.572;10.174;2023-09-30T08:37:55;10.43;;;5.03;;
3297;SDS011;1661;53.572;10.174;2023-09-30T08:40:23;23.37;;;4.63;;
3297;SDS011;1661;53.572;10.174;2023-09-30T08:42:51;13.03;;;5.43;;
3297;SDS011;1661;53.572;10.174;2023-09-30T08:45:19;11.23;;;3.87;;
3297;SDS011;1661;53.572;10.174;2023-09-30T08:47:47;15.43;;;3.90;;
3297;SDS011;1661;53.572;10.174;2023-09-30T08:50:15;16.73;;;5.13;;
3297;SDS011;1661;53.572;10.174;2023-09-30T08:52:43;11.63;;;5.10;;
3297;SDS011;1661;53.572;10.174;2023-09-30T08:55:11;12.87;;;4.20;;
3297;SDS011;1661;53.572;10.174;2023-09-30T08:57:39;16.93;;;4.33;;
3297;SDS011;1661;53.572;10.174;2023-09-30T09:00:07;14.60;;;5.37;;
3297;SDS011;1661;53.572;10.174;2023-09-30T09:02:37;14.37;;;4.47;;
3297;SDS011;1661;53.572;10.174;2023-09-30T09:05:06;10.83;;;4.03;;
3297;SDS011;1661;53.572;10.174;2023-09-30T09:07:34;18.77;;;4.87;;
3297;SDS011;1661;53.572;10.174;2023-09-30T09:10:04;20.93;;;4.97;;
3297;SDS011;1661;53.572;10.174;2023-09-30T09:12:33;10.47;;;4.17;;
3297;SDS011;1661;53.572;10.174;2023-09-30T09:15:00;9.27;;;3.73;;
3297;SDS011;1661;53.572;10.174;2023-09-30T09:17:39;25.23;;;5.17;;
3297;SDS011;1661;53.572;10.174;2023-09-30T09:20:10;12.63;;;4.50;;
3297;SDS011;1661;53.572;10.174;2023-09-30T09:22:45;12.30;;;4.67;;
3297;SDS011;1661;53.572;10.174;2023-09-30T09:25:13;16.40;;;5.00;;
3297;SDS011;1661;53.572;10.174;2023-09-30T09:27:40;5.90;;;3.07;;
3297;SDS011;1661;53.572;10.174;2023-09-30T09:30:19;17.23;;;4.63;;
3297;SDS011;1661;53.572;10.174;2023-09-30T09:32:51;7.63;;;3.60;;
3297;SDS011;1661;53.572;10.174;2023-09-30T09:35:21;12.20;;;3.83;;
3297;SDS011;1661;53.572;10.174;2023-09-30T09:37:57;17.93;;;3.30;;
3297;SDS011;1661;53.572;10.174;2023-09-30T09:40:26;15.23;;;4.27;;
3297;SDS011;1661;53.572;10.174;2023-09-30T09:42:54;12.33;;;3.73;;
3297;SDS011;1661;53.572;10.174;2023-09-30T09:45:22;17.83;;;3.87;;
3297;SDS011;1661;53.572;10.174;2023-09-30T09:47:49;11.90;;;4.33;;
3297;SDS011;1661;53.572;10.174;2023-09-30T09:50:17;11.63;;;4.17;;
3297;SDS011;1661;53.572;10.174;2023-09-30T09:52:48;14.37;;;3.83;;
3297;SDS011;1661;53.572;10.174;2023-09-30T09:55:16;16.00;;;3.50;;
3297;SDS011;1661;53.572;10.174;2023-09-30T09:57:44;13.40;;;4.03;;
3297;SDS011;1661;53.572;10.174;2023-09-30T10:00:12;18.67;;;4.07;;
3297;SDS011;1661;53.572;10.174;2023-09-30T10:02:41;17.03;;;4.10;;
3297;SDS011;1661;53.572;10.174;2023-09-30T10:05:08;20.33;;;4.20;;
3297;SDS011;1661;53.572;10.174;2023-09-30T10:07:37;11.93;;;4.10;;
3297;SDS011;1661;53.572;10.174;2023-09-30T10:10:11;16.30;;;4.63;;
3297;SDS011;1661;53.572;10.174;2023-09-30T10:12:41;13.63;;;3.30;;
3297;SDS011;1661;53.572;10.174;2023-09-30T10:18:12;13.13;;;4.10;;
3297;SDS011;1661;53.572;10.174;2023-09-30T10:20:39;12.80;;;3.93;;
3297;SDS011;1661;53.572;10.174;2023-09-30T10:23:19;12.00;;;3.93;;
3297;SDS011;1661;53.572;10.174;2023-09-30T10:25:53;18.83;;;4.20;;
3297;SDS011;1661;53.572;10.174;2023-09-30T10:28:32;13.50;;;3.20;;
3297;SDS011;1661;53.572;10.174;2023-09-30T10:31:10;14.90;;;3.50;;
3297;SDS011;1661;53.572;10.174;2023-09-30T10:36:40;10.60;;;3.43;;
3297;SDS011;1661;53.572;10.174;2023-09-30T10:39:10;16.87;;;4.23;;
3297;SDS011;1661;53.572;10.174;2023-09-30T10:41:50;9.60;;;3.20;;
3297;SDS011;1661;53.572;10.174;2023-09-30T10:44:32;12.30;;;3.70;;
3297;SDS011;1661;53.572;10.174;2023-09-30T10:47:00;9.20;;;2.93;;
3297;SDS011;1661;53.572;10.174;2023-09-30T10:49:47;14.90;;;3.60;;
3297;SDS011;1661;53.572;10.174;2023-09-30T10:52:21;9.63;;;3.10;;
3297;SDS011;1661;53.572;10.174;2023-09-30T10:54:49;14.03;;;3.10;;
3297;SDS011;1661;53.572;10.174;2023-09-30T10:57:27;13.63;;;4.00;;
3297;SDS011;1661;53.572;10.174;2023-09-30T11:00:07;17.47;;;3.43;;
3297;SDS011;1661;53.572;10.174;2023-09-30T11:02:47;7.30;;;2.40;;
3297;SDS011;1661;53.572;10.174;2023-09-30T11:05:14;16.03;;;3.20;;
3297;SDS011;1661;53.572;10.174;2023-09-30T11:07:41;13.73;;;3.77;;
3297;SDS011;1661;53.572;10.174;2023-09-30T11:10:15;7.90;;;2.47;;
3297;SDS011;1661;53.572;10.174;2023-09-30T11:12:54;12.63;;;3.53;;
3297;SDS011;1661;53.572;10.174;2023-09-30T11:15:21;9.50;;;3.00;;
3297;SDS011;1661;53.572;10.174;2023-09-30T11:17:48;13.80;;;4.20;;
3297;SDS011;1661;53.572;10.174;2023-09-30T11:20:15;12.17;;;2.73;;
3297;SDS011;1661;53.572;10.174;2023-09-30T11:22:43;7.97;;;2.80;;
3297;SDS011;1661;53.572;10.174;2023-09-30T11:25:15;11.43;;;3.00;;
3297;SDS011;1661;53.572;10.174;2023-09-30T11:27:42;12.20;;;2.57;;
3297;SDS011;1661;53.572;10.174;2023-09-30T11:30:11;8.90;;;2.70;;
3297;SDS011;1661;53.572;10.174;2023-09-30T11:32:39;13.17;;;3.33;;
3297;SDS011;1661;53.572;10.174;2023-09-30T11:35:08;10.50;;;2.80;;
3297;SDS011;1661;53.572;10.174;2023-09-30T11:37:36;13.60;;;3.07;;
3297;SDS011;1661;53.572;10.174;2023-09-30T11:40:10;8.20;;;3.13;;
3297;SDS011;1661;53.572;10.174;2023-09-30T11:42:39;14.10;;;3.50;;
3297;SDS011;1661;53.572;10.174;2023-09-30T11:47:50;6.20;;;3.07;;
3297;SDS011;1661;53.572;10.174;2023-09-30T11:50:17;11.40;;;2.67;;
3297;SDS011;1661;53.572;10.174;2023-09-30T11:52:44;7.30;;;3.03;;
3297;SDS011;1661;53.572;10.174;2023-09-30T11:55:12;7.57;;;2.90;;
3297;SDS011;1661;53.572;10.174;2023-09-30T11:57:41;6.30;;;3.20;;
3297;SDS011;1661;53.572;10.174;2023-09-30T12:00:08;9.37;;;3.37;;
3297;SDS011;1661;53.572;10.174;2023-09-30T12:02:40;9.30;;;3.33;;
3297;SDS011;1661;53.572;10.174;2023-09-30T12:05:07;14.53;;;3.23;;
3297;SDS011;1661;53.572;10.174;2023-09-30T12:07:36;15.67;;;2.90;;
3297;SDS011;1661;53.572;10.174;2023-09-30T12:10:03;7.40;;;2.47;;
3297;SDS011;1661;53.572;10.174;2023-09-30T12:12:30;6.90;;;2.63;;
3297;SDS011;1661;53.572;10.174;2023-09-30T12:14:57;11.17;;;3.63;;
3297;SDS011;1661;53.572;10.174;2023-09-30T12:17:24;18.23;;;3.40;;
3297;SDS011;1661;53.572;10.174;2023-09-30T12:19:53;10.87;;;3.10;;
3297;SDS011;1661;53.572;10.174;2023-09-30T12:22:20;7.63;;;2.13;;
3297;SDS011;1661;53.572;10.174;2023-09-30T12:24:47;10.80;;;3.00;;
3297;SDS011;1661;53.572;10.174;2023-09-30T12:27:14;12.43;;;2.73;;
3297;SDS011;1661;53.572;10.174;2023-09-30T12:29:42;14.37;;;3.30;;
3297;SDS011;1661;53.572;10.174;2023-09-30T12:32:09;11.90;;;2.70;;
3297;SDS011;1661;53.572;10.174;2023-09-30T12:34:36;8.73;;;2.97;;
3297;SDS011;1661;53.572;10.174;2023-09-30T12:37:04;4.63;;;2.03;;
3297;SDS011;1661;53.572;10.174;2023-09-30T12:39:32;9.30;;;1.90;;
3297;SDS011;1661;53.572;10.174;2023-09-30T12:41:59;6.47;;;2.60;;
3297;SDS011;1661;53.572;10.174;2023-09-30T12:44:26;9.80;;;2.30;;
3297;SDS011;1661;53.572;10.174;2023-09-30T12:46:53;9.47;;;2.90;;
3297;SDS011;1661;53.572;10.174;2023-09-30T12:49:20;5.40;;;2.57;;
3297;SDS011;1661;53.572;10.174;2023-09-30T12:51:46;11.30;;;3.40;;
3297;SDS011;1661;53.572;10.174;2023-09-30T12:54:15;7.40;;;1.73;;
3297;SDS011;1661;53.572;10.174;2023-09-30T12:56:43;7.50;;;2.53;;
3297;SDS011;1661;53.572;10.174;2023-09-30T12:59:12;6.57;;;2.10;;
3297;SDS011;1661;53.572;10.174;2023-09-30T13:01:41;7.43;;;2.10;;
3297;SDS011;1661;53.572;10.174;2023-09-30T13:04:08;10.93;;;2.70;;
3297;SDS011;1661;53.572;10.174;2023-09-30T13:06:36;10.37;;;3.03;;
3297;SDS011;1661;53.572;10.174;2023-09-30T13:09:03;7.90;;;3.40;;
3297;SDS011;1661;53.572;10.174;2023-09-30T13:11:31;6.97;;;3.10;;
3297;SDS011;1661;53.572;10.174;2023-09-30T13:13:58;11.93;;;3.07;;
3297;SDS011;1661;53.572;10.174;2023-09-30T13:16:25;10.97;;;2.90;;
3297;SDS011;1661;53.572;10.174;2023-09-30T13:18:52;6.80;;;2.27;;
3297;SDS011;1661;53.572;10.174;2023-09-30T13:21:18;6.97;;;2.97;;
3297;SDS011;1661;53.572;10.174;2023-09-30T13:23:45;10.90;;;2.40;;
3297;SDS011;1661;53.572;10.174;2023-09-30T13:26:12;8.70;;;2.63;;
3297;SDS011;1661;53.572;10.174;2023-09-30T13:28:40;12.17;;;2.83;;
3297;SDS011;1661;53.572;10.174;2023-09-30T13:31:07;9.50;;;2.60;;
3297;SDS011;1661;53.572;10.174;2023-09-30T13:33:34;14.20;;;3.10;;
3297;SDS011;1661;53.572;10.174;2023-09-30T13:36:01;11.43;;;3.33;;
3297;SDS011;1661;53.572;10.174;2023-09-30T13:38:28;8.20;;;2.50;;
3297;SDS011;1661;53.572;10.174;2023-09-30T13:40:55;17.97;;;3.13;;
3297;SDS011;1661;53.572;10.174;2023-09-30T13:43:22;6.67;;;2.13;;
3297;SDS011;1661;53.572;10.174;2023-09-30T13:45:50;8.60;;;3.07;;
3297;SDS011;1661;53.572;10.174;2023-09-30T13:48:17;9.50;;;3.23;;
3297;SDS011;1661;53.572;10.174;2023-09-30T13:50:43;8.47;;;3.57;;
3297;SDS011;1661;53.572;10.174;2023-09-30T13:53:10;6.80;;;3.07;;
3297;SDS011;1661;53.572;10.174;2023-09-30T13:55:37;6.03;;;2.87;;
3297;SDS011;1661;53.572;10.174;2023-09-30T13:58:05;7.13;;;2.50;;
3297;SDS011;1661;53.572;10.174;2023-09-30T14:00:32;6.60;;;2.10;;
3297;SDS011;1661;53.572;10.174;2023-09-30T14:03:00;10.23;;;2.83;;
3297;SDS011;1661;53.572;10.174;2023-09-30T14:05:28;5.70;;;2.70;;
3297;SDS011;1661;53.572;10.174;2023-09-30T14:07:54;10.30;;;2.83;;
3297;SDS011;1661;53.572;10.174;2023-09-30T14:10:21;8.53;;;2.77;;
3297;SDS011;1661;53.572;10.174;2023-09-30T14:12:49;7.10;;;2.40;;
3297;SDS011;1661;53.572;10.174;2023-09-30T14:15:19;7.67;;;2.83;;
3297;SDS011;1661;53.572;10.174;2023-09-30T14:17:46;7.87;;;2.77;;
3297;SDS011;1661;53.572;10.174;2023-09-30T14:20:14;6.60;;;3.10;;
3297;SDS011;1661;53.572;10.174;2023-09-30T14:22:41;6.00;;;2.47;;
3297;SDS011;1661;53.572;10.174;2023-09-30T14:25:08;8.80;;;2.80;;
3297;SDS011;1661;53.572;10.174;2023-09-30T14:27:35;7.87;;;2.93;;
3297;SDS011;1661;53.572;10.174;2023-09-30T14:30:02;11.27;;;3.13;;
3297;SDS011;1661;53.572;10.174;2023-09-30T14:32:30;7.27;;;2.53;;
3297;SDS011;1661;53.572;10.174;2023-09-30T14:34:59;11.90;;;3.00;;
3297;SDS011;1661;53.572;10.174;2023-09-30T14:37:28;8.73;;;2.40;;
3297;SDS011;1661;53.572;10.174;2023-09-30T14:39:55;12.37;;;2.70;;
3297;SDS011;1661;53.572;10.174;2023-09-30T14:42:21;10.20;;;4.30;;
3297;SDS011;1661;53.572;10.174;2023-09-30T14:44:48;8.43;;;2.60;;
3297;SDS011;1661;53.572;10.174;2023-09-30T14:47:15;10.03;;;3.10;;
3297;SDS011;1661;53.572;10.174;2023-09-30T14:49:42;7.43;;;2.47;;
3297;SDS011;1661;53.572;10.174;2023-09-30T14:52:09;5.70;;;3.07;;
3297;SDS011;1661;53.572;10.174;2023-09-30T14:54:37;16.33;;;3.63;;
3297;SDS011;1661;53.572;10.174;2023-09-30T14:57:04;4.73;;;1.53;;
3297;SDS011;1661;53.572;10.174;2023-09-30T14:59:32;5.00;;;2.67;;
3297;SDS011;1661;53.572;10.174;2023-09-30T15:02:00;8.30;;;2.73;;
3297;SDS011;1661;53.572;10.174;2023-09-30T15:04:27;9.37;;;2.53;;